createdAt,value
2018-09-22T00:01:27.342Z,15.11
2018-09-22T00:03:54.529Z,15.05
2018-09-22T00:06:21.709Z,15.06
2018-09-22T00:08:48.850Z,14.95
2018-09-22T00:11:15.979Z,14.97
2018-09-22T00:13:43.101Z,14.95
2018-09-22T00:16:10.231Z,14.92
2018-09-22T00:18:37.367Z,14.84
2018-09-22T00:21:04.862Z,14.85
2018-09-22T00:23:31.965Z,14.80
2018-09-22T00:25:59.123Z,14.81
2018-09-22T00:28:26.277Z,14.81
2018-09-22T00:30:53.414Z,14.75
2018-09-22T00:33:20.530Z,14.69
2018-09-22T00:35:47.724Z,14.71
2018-09-22T00:38:14.909Z,14.73
2018-09-22T00:40:42.053Z,14.62
2018-09-22T00:43:09.176Z,14.51
2018-09-22T00:45:36.478Z,14.43
2018-09-22T00:48:03.737Z,14.40
2018-09-22T00:50:30.930Z,14.39
2018-09-22T00:52:58.067Z,14.37
2018-09-22T00:55:25.289Z,14.41
2018-09-22T00:57:52.465Z,14.28
2018-09-22T01:00:19.588Z,14.34
2018-09-22T01:02:46.731Z,14.28
2018-09-22T01:05:13.953Z,14.32
2018-09-22T01:07:41.175Z,14.26
2018-09-22T01:10:08.451Z,14.25
2018-09-22T01:12:35.600Z,14.31
2018-09-22T01:15:02.827Z,14.29
2018-09-22T01:17:29.981Z,13.50
2018-09-22T01:19:57.191Z,14.26
2018-09-22T01:22:24.461Z,14.21
2018-09-22T01:24:51.626Z,14.19
2018-09-22T01:27:18.779Z,14.15
2018-09-22T01:29:45.954Z,14.17
2018-09-22T01:32:13.183Z,14.15
2018-09-22T01:34:40.366Z,14.13
2018-09-22T01:37:07.634Z,14.10
2018-09-22T01:39:34.913Z,14.18
2018-09-22T01:42:02.109Z,14.26
2018-09-22T01:44:29.306Z,14.17
2018-09-22T01:46:56.765Z,14.15
2018-09-22T01:49:23.962Z,14.09
2018-09-22T01:51:51.164Z,14.17
2018-09-22T01:54:18.304Z,14.26
2018-09-22T01:56:45.508Z,14.21
2018-09-22T01:59:12.710Z,14.12
2018-09-22T02:01:39.983Z,14.11
2018-09-22T02:04:07.571Z,14.00
2018-09-22T02:06:34.830Z,14.00
2018-09-22T02:09:04.437Z,13.99
2018-09-22T02:11:31.781Z,13.97
2018-09-22T02:13:59.374Z,13.72
2018-09-22T02:16:26.625Z,13.77
2018-09-22T02:18:54.234Z,13.82
2018-09-22T02:21:22.228Z,13.80
2018-09-22T02:23:49.451Z,13.82
2018-09-22T02:26:16.798Z,13.71
2018-09-22T02:28:44.027Z,13.82
2018-09-22T02:31:11.221Z,13.83
2018-09-22T02:33:38.384Z,13.80
2018-09-22T02:36:05.627Z,13.83
2018-09-22T02:38:32.826Z,13.85
2018-09-22T02:41:00.124Z,13.84
2018-09-22T02:43:27.353Z,13.84
2018-09-22T02:45:54.629Z,13.68
2018-09-22T02:48:21.826Z,13.74
2018-09-22T02:50:49.017Z,13.74
2018-09-22T02:53:16.194Z,13.74
2018-09-22T02:55:43.528Z,13.68
2018-09-22T02:58:10.620Z,13.44
2018-09-22T03:00:37.767Z,13.35
2018-09-22T03:03:05.230Z,13.33
2018-09-22T03:05:32.347Z,13.42
2018-09-22T03:07:59.673Z,13.36
2018-09-22T03:10:26.921Z,13.38
2018-09-22T03:12:54.125Z,13.43
2018-09-22T03:15:21.323Z,13.42
2018-09-22T03:17:48.491Z,13.43
2018-09-22T03:20:16.499Z,13.42
2018-09-22T03:22:43.785Z,13.40
2018-09-22T03:25:10.966Z,13.45
2018-09-22T03:27:38.150Z,13.44
2018-09-22T03:30:06.361Z,13.47
2018-09-22T03:32:33.563Z,13.43
2018-09-22T03:35:01.585Z,13.41
2018-09-22T03:37:28.868Z,13.44
2018-09-22T03:39:56.034Z,13.48
2018-09-22T03:42:23.294Z,13.40
2018-09-22T03:44:50.443Z,13.33
2018-09-22T03:47:17.628Z,13.47
2018-09-22T03:49:44.893Z,13.37
2018-09-22T03:52:12.138Z,13.37
2018-09-22T03:54:39.342Z,13.34
2018-09-22T03:57:06.520Z,13.40
2018-09-22T03:59:33.640Z,13.43
2018-09-22T04:02:00.878Z,13.40
2018-09-22T04:04:28.049Z,13.25
2018-09-22T04:06:55.416Z,13.44
2018-09-22T04:09:22.605Z,13.37
2018-09-22T04:11:49.952Z,13.43
2018-09-22T04:14:17.065Z,13.42
2018-09-22T04:16:44.151Z,13.34
2018-09-22T04:19:11.331Z,13.36
2018-09-22T04:21:38.455Z,13.37
2018-09-22T04:24:10.426Z,13.41
2018-09-22T04:26:37.964Z,13.42
2018-09-22T04:29:05.215Z,13.39
2018-09-22T04:31:32.393Z,13.39
2018-09-22T04:33:59.551Z,13.39
2018-09-22T04:36:26.909Z,13.56
2018-09-22T04:38:54.461Z,13.44
2018-09-22T04:41:21.631Z,13.41
2018-09-22T04:43:49.171Z,13.43
2018-09-22T04:46:16.315Z,13.55
2018-09-22T04:48:43.419Z,13.66
2018-09-22T04:51:10.542Z,13.58
2018-09-22T04:53:37.666Z,13.50
2018-09-22T04:56:04.811Z,13.50
2018-09-22T04:58:31.914Z,13.46
2018-09-22T05:00:59.041Z,13.35
2018-09-22T05:03:26.165Z,13.43
2018-09-22T05:05:53.301Z,13.45
2018-09-22T05:08:20.435Z,13.52
2018-09-22T05:10:47.548Z,13.60
2018-09-22T05:13:14.651Z,13.62
2018-09-22T05:15:41.779Z,13.57
2018-09-22T05:18:08.869Z,13.55
2018-09-22T05:20:36.028Z,13.56
2018-09-22T05:23:03.147Z,13.52
2018-09-22T05:25:30.279Z,13.47
2018-09-22T05:27:57.608Z,13.48
2018-09-22T05:30:24.803Z,13.54
2018-09-22T05:32:52.006Z,13.56
2018-09-22T05:35:19.157Z,13.59
2018-09-22T05:37:46.389Z,13.54
2018-09-22T05:40:13.530Z,13.51
2018-09-22T05:42:40.627Z,13.59
2018-09-22T05:45:07.826Z,13.54
2018-09-22T05:47:34.929Z,12.90
2018-09-22T05:50:02.038Z,13.65
2018-09-22T05:52:29.165Z,13.67
2018-09-22T05:54:57.065Z,13.65
2018-09-22T05:57:24.270Z,13.58
2018-09-22T05:59:51.467Z,13.62
2018-09-22T06:02:18.616Z,13.62
2018-09-22T06:04:45.767Z,13.69
2018-09-22T06:07:13.034Z,13.70
2018-09-22T06:09:40.171Z,13.75
2018-09-22T06:12:07.346Z,13.66
2018-09-22T06:14:34.462Z,13.78
2018-09-22T06:17:01.614Z,13.78
2018-09-22T06:19:28.778Z,13.77
2018-09-22T06:21:55.969Z,13.75
2018-09-22T06:24:23.065Z,13.71
2018-09-22T06:26:50.295Z,13.80
2018-09-22T06:29:17.378Z,13.80
2018-09-22T06:31:44.510Z,13.73
2018-09-22T06:34:11.614Z,13.78
2018-09-22T06:36:38.753Z,13.86
2018-09-22T06:39:07.297Z,13.86
2018-09-22T06:41:34.475Z,13.86
2018-09-22T06:44:01.590Z,13.89
2018-09-22T06:46:28.898Z,13.99
2018-09-22T06:48:56.104Z,13.98
2018-09-22T06:51:23.221Z,14.00
2018-09-22T06:53:50.366Z,14.06
2018-09-22T06:56:17.516Z,14.09
2018-09-22T06:58:44.773Z,14.08
2018-09-22T07:01:11.948Z,14.15
2018-09-22T07:03:39.217Z,14.18
2018-09-22T07:06:06.712Z,14.26
2018-09-22T07:08:34.341Z,14.28
2018-09-22T07:11:01.440Z,14.33
2018-09-22T07:13:28.683Z,14.37
2018-09-22T07:15:55.883Z,14.43
2018-09-22T07:18:23.098Z,14.54
2018-09-22T07:20:55.930Z,14.55
2018-09-22T07:23:23.367Z,14.57
2018-09-22T07:25:50.604Z,14.67
2018-09-22T07:28:17.736Z,14.77
2018-09-22T07:30:45.105Z,14.87
2018-09-22T07:33:12.223Z,14.88
2018-09-22T07:35:39.389Z,14.93
2018-09-22T07:38:06.651Z,14.85
2018-09-22T07:40:33.858Z,14.86
2018-09-22T07:43:01.018Z,14.87
2018-09-22T07:45:28.256Z,14.85
2018-09-22T07:47:56.077Z,14.98
2018-09-22T07:50:23.273Z,15.03
2018-09-22T07:52:50.475Z,15.18
2018-09-22T07:55:17.610Z,15.18
2018-09-22T07:57:44.882Z,15.23
2018-09-22T08:00:12.111Z,15.11
2018-09-22T08:02:39.454Z,15.07
2018-09-22T08:05:07.815Z,15.06
2018-09-22T08:07:35.233Z,15.14
2018-09-22T08:10:02.647Z,15.18
2018-09-22T08:12:30.784Z,15.28
2018-09-22T08:14:59.092Z,15.38
2018-09-22T08:17:26.226Z,15.44
2018-09-22T08:19:53.780Z,15.48
2018-09-22T08:22:21.082Z,15.60
2018-09-22T08:24:48.319Z,15.72
2018-09-22T08:27:15.629Z,15.77
2018-09-22T08:29:42.815Z,15.85
2018-09-22T08:32:10.146Z,15.79
2018-09-22T08:34:37.412Z,15.80
2018-09-22T08:37:04.857Z,15.76
2018-09-22T08:39:31.994Z,15.77
2018-09-22T08:41:59.457Z,15.78
2018-09-22T08:44:26.596Z,15.78
2018-09-22T08:46:53.820Z,15.81
2018-09-22T08:49:21.040Z,15.92
2018-09-22T08:51:49.137Z,15.93
2018-09-22T08:54:16.332Z,15.96
2018-09-22T08:56:43.871Z,15.97
2018-09-22T08:59:11.256Z,16.17
2018-09-22T09:01:38.679Z,16.33
2018-09-22T09:04:05.850Z,16.45
2018-09-22T09:06:33.180Z,16.55
2018-09-22T09:09:00.571Z,16.75
2018-09-22T09:11:27.877Z,16.75
2018-09-22T09:13:55.010Z,16.66
2018-09-22T09:16:22.166Z,16.68
2018-09-22T09:18:49.348Z,16.87
2018-09-22T09:21:16.646Z,16.92
2018-09-22T09:23:43.921Z,16.94
2018-09-22T09:26:11.523Z,17.04
2018-09-22T09:28:48.162Z,17.16
2018-09-22T09:31:16.242Z,17.23
2018-09-22T09:33:43.416Z,17.22
2018-09-22T09:36:10.613Z,17.21
2018-09-22T09:38:37.890Z,17.14
2018-09-22T09:41:05.078Z,17.09
2018-09-22T09:43:32.434Z,17.32
2018-09-22T09:46:01.518Z,17.49
2018-09-22T09:48:28.838Z,17.55
2018-09-22T09:50:56.551Z,17.64
2018-09-22T09:53:24.707Z,17.65
2018-09-22T09:55:52.107Z,17.68
2018-09-22T09:58:19.314Z,17.73
2018-09-22T10:00:46.855Z,17.92
2018-09-22T10:03:15.986Z,18.09
2018-09-22T10:05:43.629Z,18.04
2018-09-22T10:08:10.801Z,18.11
2018-09-22T10:10:38.102Z,18.21
2018-09-22T10:13:05.298Z,18.32
2018-09-22T10:15:32.426Z,18.33
2018-09-22T10:17:59.529Z,18.26
2018-09-22T10:20:26.835Z,18.25
2018-09-22T10:22:54.065Z,18.28
2018-09-22T10:25:22.174Z,17.98
2018-09-22T10:27:49.332Z,18.12
2018-09-22T10:30:16.575Z,18.24
2018-09-22T10:32:43.700Z,18.28
2018-09-22T10:35:10.885Z,18.34
2018-09-22T10:37:37.974Z,18.18
2018-09-22T10:40:05.682Z,18.18
2018-09-22T10:42:32.878Z,18.40
2018-09-22T10:45:00.073Z,18.56
2018-09-22T10:47:27.317Z,18.60
2018-09-22T10:49:54.533Z,18.59
2018-09-22T10:52:21.728Z,18.74
2018-09-22T10:54:49.063Z,18.96
2018-09-22T10:57:16.384Z,19.04
2018-09-22T10:59:43.590Z,19.02
2018-09-22T11:02:10.749Z,19.11
2018-09-22T11:04:37.994Z,18.97
2018-09-22T11:07:05.249Z,19.18
2018-09-22T11:09:32.457Z,19.15
2018-09-22T11:11:59.784Z,19.40
2018-09-22T11:14:26.961Z,19.37
2018-09-22T11:16:54.154Z,19.47
2018-09-22T11:19:21.497Z,19.35
2018-09-22T11:21:48.775Z,19.47
2018-09-22T11:24:15.988Z,19.60
2018-09-22T11:26:43.170Z,19.62
2018-09-22T11:29:10.409Z,19.63
2018-09-22T11:31:37.818Z,19.78
2018-09-22T11:34:05.200Z,19.84
2018-09-22T11:36:32.461Z,19.61
2018-09-22T11:38:59.632Z,19.58
2018-09-22T11:41:27.626Z,19.66
2018-09-22T11:43:54.793Z,19.70
2018-09-22T11:46:21.964Z,19.65
2018-09-22T11:48:49.874Z,19.83
2018-09-22T11:51:17.020Z,19.85
2018-09-22T11:53:44.238Z,19.92
2018-09-22T11:56:11.507Z,19.87
2018-09-22T11:58:38.758Z,19.65
2018-09-22T12:01:05.942Z,19.58
2018-09-22T12:03:33.519Z,19.77
2018-09-22T12:06:00.627Z,20.03
2018-09-22T12:08:27.914Z,19.87
2018-09-22T12:10:55.167Z,20.07
2018-09-22T12:13:22.387Z,20.28
2018-09-22T12:15:49.562Z,20.54
2018-09-22T12:18:16.743Z,20.41
2018-09-22T12:20:43.866Z,20.37
2018-09-22T12:23:11.060Z,20.40
2018-09-22T12:25:38.298Z,20.37
2018-09-22T12:28:06.033Z,20.39
2018-09-22T12:30:33.517Z,20.26
2018-09-22T12:33:00.741Z,20.22
2018-09-22T12:35:28.186Z,20.26
2018-09-22T12:37:55.384Z,20.16
2018-09-22T12:40:22.628Z,20.17
2018-09-22T12:42:49.853Z,20.35
2018-09-22T12:45:17.107Z,20.57
2018-09-22T12:47:44.238Z,20.55
2018-09-22T12:50:11.417Z,20.78
2018-09-22T12:52:38.570Z,21.13
2018-09-22T12:55:05.850Z,21.08
2018-09-22T12:57:34.155Z,21.01
2018-09-22T13:00:01.463Z,21.05
2018-09-22T13:02:28.631Z,21.29
2018-09-22T13:04:55.782Z,21.38
2018-09-22T13:07:22.895Z,21.40
2018-09-22T13:09:50.342Z,21.36
2018-09-22T13:12:17.495Z,21.39
2018-09-22T13:14:44.946Z,21.19
2018-09-22T13:17:12.233Z,21.15
2018-09-22T13:19:39.356Z,21.09
2018-09-22T13:22:06.768Z,20.88
2018-09-22T13:24:33.906Z,20.72
2018-09-22T13:27:01.050Z,20.89
2018-09-22T13:29:28.664Z,21.28
2018-09-22T13:31:55.825Z,21.57
2018-09-22T13:34:22.963Z,21.48
2018-09-22T13:36:50.162Z,21.50
2018-09-22T13:39:17.305Z,21.50
2018-09-22T13:41:44.524Z,21.55
2018-09-22T13:44:11.712Z,21.52
2018-09-22T13:46:39.372Z,21.30
2018-09-22T13:49:06.481Z,21.11
2018-09-22T13:51:33.814Z,20.83
2018-09-22T13:54:00.946Z,20.51
2018-09-22T13:56:28.237Z,20.18
2018-09-22T13:58:55.522Z,20.15
2018-09-22T14:01:22.667Z,20.14
2018-09-22T14:03:49.913Z,20.34
2018-09-22T14:06:17.185Z,20.24
2018-09-22T14:08:44.467Z,20.14
2018-09-22T14:11:11.858Z,20.19
2018-09-22T14:13:39.134Z,20.20
2018-09-22T14:16:06.263Z,20.21
2018-09-22T14:18:33.516Z,20.20
2018-09-22T14:21:00.657Z,20.31
2018-09-22T14:23:27.934Z,20.34
2018-09-22T14:25:55.118Z,20.54
2018-09-22T14:28:22.312Z,20.71
2018-09-22T14:30:49.445Z,20.46
2018-09-22T14:33:16.594Z,20.45
2018-09-22T14:35:43.717Z,20.48
2018-09-22T14:38:10.918Z,20.47
2018-09-22T14:40:38.568Z,20.24
2018-09-22T14:43:06.260Z,20.00
2018-09-22T14:45:33.431Z,20.09
2018-09-22T14:48:01.294Z,20.05
2018-09-22T14:50:28.483Z,19.98
2018-09-22T14:52:55.741Z,19.96
2018-09-22T14:55:23.009Z,19.82
2018-09-22T14:57:50.254Z,19.79
2018-09-22T15:00:17.442Z,19.80
2018-09-22T15:02:44.549Z,19.75
2018-09-22T15:05:11.994Z,19.73
2018-09-22T15:07:39.272Z,19.87
2018-09-22T15:10:06.526Z,19.85
2018-09-22T15:12:34.966Z,19.68
2018-09-22T15:15:02.204Z,19.72
2018-09-22T15:17:29.438Z,19.65
2018-09-22T15:19:57.162Z,19.60
2018-09-22T15:22:24.379Z,19.71
2018-09-22T15:24:51.657Z,19.74
2018-09-22T15:27:18.790Z,19.75
2018-09-22T15:29:45.954Z,19.62
2018-09-22T15:32:13.088Z,19.57
2018-09-22T15:34:40.293Z,19.49
2018-09-22T15:37:07.481Z,18.52
2018-09-22T15:39:34.578Z,19.50
2018-09-22T15:42:01.698Z,19.50
2018-09-22T15:44:28.989Z,19.47
2018-09-22T15:46:56.155Z,19.57
2018-09-22T15:49:23.420Z,19.45
2018-09-22T15:51:50.903Z,19.52
2018-09-22T15:54:18.094Z,19.50
2018-09-22T15:56:45.327Z,19.38
2018-09-22T15:59:12.790Z,19.25
2018-09-22T16:01:40.098Z,19.32
2018-09-22T16:04:07.497Z,19.28
2018-09-22T16:06:35.430Z,19.28
2018-09-22T16:09:03.694Z,19.30
2018-09-22T16:11:30.871Z,19.28
2018-09-22T16:13:57.974Z,19.22
2018-09-22T16:16:25.413Z,19.17
2018-09-22T16:18:52.538Z,19.07
2018-09-22T16:21:20.247Z,19.05
2018-09-22T16:23:47.585Z,19.03
2018-09-22T16:26:14.796Z,19.03
2018-09-22T16:28:42.058Z,19.11
2018-09-22T16:31:09.369Z,19.02
2018-09-22T16:33:36.583Z,19.06
2018-09-22T16:36:03.926Z,19.05
2018-09-22T16:38:31.086Z,19.06
2018-09-22T16:40:58.293Z,19.07
2018-09-22T16:43:25.597Z,19.10
2018-09-22T16:45:52.774Z,19.07
2018-09-22T16:48:20.061Z,18.87
2018-09-22T16:50:47.306Z,18.94
2018-09-22T16:53:14.538Z,18.93
2018-09-22T16:55:42.543Z,18.97
2018-09-22T16:58:09.695Z,18.86
2018-09-22T17:00:37.344Z,18.84
2018-09-22T17:03:04.677Z,18.81
2018-09-22T17:05:33.709Z,18.73
2018-09-22T17:08:00.898Z,18.63
2018-09-22T17:10:28.025Z,18.49
2018-09-22T17:12:55.142Z,18.44
2018-09-22T17:15:22.354Z,18.45
2018-09-22T17:17:49.475Z,18.37
2018-09-22T17:20:16.721Z,18.33
2018-09-22T17:22:44.090Z,18.30
2018-09-22T17:25:11.213Z,18.35
2018-09-22T17:27:38.906Z,18.31
2018-09-22T17:30:06.347Z,18.17
2018-09-22T17:32:34.534Z,18.00
2018-09-22T17:35:01.851Z,17.90
2018-09-22T17:37:29.628Z,17.79
2018-09-22T17:39:56.857Z,17.75
2018-09-22T17:42:24.053Z,17.68
2018-09-22T17:44:51.566Z,17.61
2018-09-22T17:47:18.698Z,17.49
2018-09-22T17:49:45.914Z,17.43
2018-09-22T17:52:13.107Z,17.39
2018-09-22T17:54:40.294Z,17.32
2018-09-22T17:57:07.440Z,17.27
2018-09-22T17:59:34.659Z,17.23
2018-09-22T18:02:01.822Z,17.16
2018-09-22T18:04:29.002Z,17.13
2018-09-22T18:06:56.317Z,17.11
2018-09-22T18:09:23.617Z,17.17
2018-09-22T18:11:50.743Z,17.04
2018-09-22T18:14:17.880Z,17.00
2018-09-22T18:16:45.374Z,16.94
2018-09-22T18:19:12.613Z,16.98
2018-09-22T18:21:40.045Z,16.93
2018-09-22T18:24:07.449Z,16.89
2018-09-22T18:26:34.734Z,16.84
2018-09-22T18:29:01.995Z,16.74
2018-09-22T18:31:29.266Z,16.73
2018-09-22T18:33:56.561Z,16.70
2018-09-22T18:36:23.991Z,16.51
2018-09-22T18:38:51.998Z,16.35
2018-09-22T18:41:19.165Z,16.37
2018-09-22T18:43:46.752Z,16.37
2018-09-22T18:46:14.243Z,16.31
2018-09-22T18:48:41.477Z,16.39
2018-09-22T18:51:08.733Z,16.50
2018-09-22T18:53:35.878Z,16.45
2018-09-22T18:56:03.130Z,16.36
2018-09-22T18:58:30.376Z,16.35
2018-09-22T19:00:57.531Z,16.34
2018-09-22T19:03:24.783Z,16.34
2018-09-22T19:05:52.037Z,16.25
2018-09-22T19:08:20.336Z,16.25
2018-09-22T19:10:47.695Z,16.17
2018-09-22T19:13:18.663Z,16.17
2018-09-22T19:15:49.114Z,16.25
2018-09-22T19:18:55.257Z,16.28
2018-09-22T19:21:31.258Z,16.19
2018-09-22T19:24:01.059Z,16.09
2018-09-22T19:26:39.507Z,13.05
2018-09-22T19:30:09.875Z,15.75
2018-09-22T19:32:40.471Z,16.09
2018-09-22T19:35:15.392Z,15.96
2018-09-22T19:37:47.242Z,15.99
2018-09-22T19:40:17.771Z,16.00
2018-09-22T19:42:50.647Z,15.91
2018-09-22T19:45:35.953Z,15.91
2018-09-22T19:48:16.194Z,15.96
2018-09-22T19:50:49.234Z,15.85
2018-09-22T19:53:16.442Z,15.88
2018-09-22T19:55:43.631Z,15.86
2018-09-22T19:58:11.237Z,15.86
2018-09-22T20:00:38.659Z,15.91
2018-09-22T20:03:05.948Z,15.99
2018-09-22T20:05:33.299Z,15.99
2018-09-22T20:08:00.477Z,15.96
2018-09-22T20:10:27.699Z,15.86
2018-09-22T20:12:55.115Z,15.83
2018-09-22T20:15:22.309Z,15.84
2018-09-22T20:17:49.563Z,15.90
2018-09-22T20:20:16.770Z,15.89
2018-09-22T20:22:43.866Z,15.84
2018-09-22T20:25:11.022Z,15.76
2018-09-22T20:27:38.152Z,15.80
2018-09-22T20:30:05.505Z,15.75
2018-09-22T20:32:32.648Z,15.82
2018-09-22T20:34:59.794Z,15.78
2018-09-22T20:37:27.066Z,15.75
2018-09-22T20:39:54.317Z,15.64
2018-09-22T20:42:21.527Z,15.45
2018-09-22T20:44:49.279Z,15.47
2018-09-22T20:47:16.421Z,15.48
2018-09-22T20:49:43.637Z,15.50
2018-09-22T20:52:10.794Z,15.25
2018-09-22T20:54:37.923Z,15.49
2018-09-22T20:57:05.171Z,15.55
2018-09-22T20:59:32.537Z,15.51
2018-09-22T21:01:59.790Z,15.55
2018-09-22T21:04:27.005Z,15.51
2018-09-22T21:06:54.258Z,15.49
2018-09-22T21:09:21.569Z,15.53
2018-09-22T21:11:48.937Z,15.53
2018-09-22T21:14:16.097Z,15.53
2018-09-22T21:16:43.329Z,15.50
2018-09-22T21:19:10.496Z,15.49
2018-09-22T21:21:37.856Z,15.56
2018-09-22T21:24:05.114Z,15.54
2018-09-22T21:26:32.249Z,15.50
2018-09-22T21:28:59.554Z,15.53
2018-09-22T21:31:26.796Z,15.52
2018-09-22T21:33:53.968Z,15.44
2018-09-22T21:36:21.284Z,15.46
2018-09-22T21:38:48.449Z,15.44
2018-09-22T21:41:15.655Z,15.43
2018-09-22T21:43:42.952Z,15.42
2018-09-22T21:46:10.077Z,15.43
2018-09-22T21:48:37.258Z,15.35
2018-09-22T21:51:04.429Z,15.37
2018-09-22T21:53:31.683Z,15.44
2018-09-22T21:55:58.904Z,15.41
2018-09-22T21:58:26.157Z,15.33
2018-09-22T22:00:53.707Z,15.39
2018-09-22T22:03:22.046Z,15.34
2018-09-22T22:05:49.193Z,15.32
2018-09-22T22:08:16.778Z,15.36
2018-09-22T22:10:44.254Z,15.45
2018-09-22T22:13:11.519Z,15.46
2018-09-22T22:15:39.031Z,15.46
2018-09-22T22:18:06.214Z,15.43
2018-09-22T22:20:33.354Z,15.43
2018-09-22T22:23:00.605Z,15.42
2018-09-22T22:25:27.726Z,15.42
2018-09-22T22:27:54.922Z,15.44
2018-09-22T22:30:22.071Z,15.45
2018-09-22T22:32:49.331Z,15.37
2018-09-22T22:35:16.610Z,15.36
2018-09-22T22:37:43.839Z,15.33
2018-09-22T22:40:10.998Z,15.33
2018-09-22T22:42:38.222Z,15.37
2018-09-22T22:45:05.404Z,15.27
2018-09-22T22:47:32.687Z,15.22
2018-09-22T22:49:59.889Z,15.32
2018-09-22T22:52:26.998Z,15.36
2018-09-22T22:54:54.174Z,15.41
2018-09-22T22:57:21.390Z,15.40
2018-09-22T22:59:48.581Z,15.35
2018-09-22T23:02:15.760Z,15.27
2018-09-22T23:04:42.911Z,15.30
2018-09-22T23:07:10.002Z,15.34
2018-09-22T23:09:37.302Z,15.29
2018-09-22T23:12:04.914Z,15.26
2018-09-22T23:14:32.018Z,15.27
2018-09-22T23:16:59.143Z,15.25
2018-09-22T23:19:26.290Z,15.31
2018-09-22T23:21:53.562Z,15.31
2018-09-22T23:24:20.698Z,15.32
2018-09-22T23:26:47.946Z,15.36
2018-09-22T23:29:15.145Z,15.38
2018-09-22T23:31:42.306Z,15.35
2018-09-22T23:34:09.458Z,15.37
2018-09-22T23:36:36.617Z,15.38
2018-09-22T23:39:05.940Z,15.05
2018-09-22T23:41:33.201Z,15.38
2018-09-22T23:44:00.517Z,15.41
2018-09-22T23:46:27.811Z,15.35
2018-09-22T23:48:55.046Z,15.46
2018-09-22T23:51:22.172Z,15.51
2018-09-22T23:53:49.346Z,15.45
2018-09-22T23:56:16.469Z,15.33
2018-09-22T23:58:43.666Z,15.31
